Time;durP1;ratioP1;P1;durP2;ratioP2;P2;SDS_P1;SDS_P2;PMS_P1;PMS_P2;Temp;Humidity;BMP_temperature;BMP_pressure;BME280_temperature;BME280_humidity;BME280_pressure;Samples;Min_cycle;Max_cycle;Signal;HPM_P1;HPM_P2
2022/12/06 00:00:16;;;;;;;3.72;3.30;;;3.40;99.90;;;;;;5037164;28;20195;-91
2022/12/06 00:02:46;;;;;;;6.70;4.63;;;3.40;99.90;;;;;;5031407;28;20227;-91
2022/12/06 00:08:23;;;;;;;4.28;3.20;;;3.40;99.90;;;;;;5035869;28;20210;-91
2022/12/06 00:11:07;;;;;;;4.70;3.60;;;3.40;99.90;;;;;;5036740;28;20183;-92
2022/12/06 00:13:37;;;;;;;4.47;3.13;;;3.40;99.90;;;;;;5037233;28;20198;-91
2022/12/06 00:16:23;;;;;;;5.22;3.83;;;3.30;99.90;;;;;;5037182;28;20246;-91
2022/12/06 00:19:03;;;;;;;3.45;3.15;;;3.30;99.90;;;;;;5035839;28;20218;-91
2022/12/06 00:24:37;;;;;;;6.65;4.15;;;3.30;99.90;;;;;;5036214;28;20187;-92
2022/12/06 00:27:27;;;;;;;5.10;3.83;;;3.30;99.90;;;;;;5036239;28;20195;-91
2022/12/06 00:29:53;;;;;;;4.45;3.67;;;3.40;99.90;;;;;;5036526;28;20207;-90
2022/12/06 00:32:29;;;;;;;2.90;2.65;;;3.40;99.90;;;;;;5040842;28;20200;-91
2022/12/06 00:35:12;;;;;;;;;;;;;;;;;;;;;
2022/12/06 00:37:41;;;;;;;3.60;3.00;;;3.40;99.90;;;;;;5076593;28;20186;-92
2022/12/06 00:40:27;;;;;;;3.88;3.17;;;3.40;99.90;;;;;;5076582;28;20189;-90
2022/12/06 00:43:01;;;;;;;4.40;3.08;;;3.40;99.90;;;;;;5076497;28;20248;-89
2022/12/06 00:45:54;;;;;;;3.17;2.58;;;3.30;99.90;;;;;;5076513;28;20185;-89
2022/12/06 00:48:22;;;;;;;3.92;3.30;;;3.30;99.90;;;;;;5074822;28;20284;-92
2022/12/06 00:50:52;;;;;;;4.20;3.47;;;3.30;99.90;;;;;;5080088;28;20212;-91
2022/12/06 00:53:38;;;;;;;2.78;2.42;;;3.30;99.90;;;;;;5080130;28;20210;-91
2022/12/06 00:56:15;;;;;;;3.25;2.30;;;3.20;99.90;;;;;;5079838;28;20198;-90
2022/12/06 00:58:45;;;;;;;3.10;2.63;;;3.20;99.90;;;;;;5080400;28;20190;-92
2022/12/06 01:01:20;;;;;;;3.10;2.67;;;3.10;99.90;;;;;;5079603;28;20193;-91
2022/12/06 01:03:58;;;;;;;2.75;2.45;;;3.10;99.90;;;;;;5078445;28;20248;-90
2022/12/06 01:06:30;;;;;;;3.22;2.80;;;3.10;99.90;;;;;;5079954;28;20220;-90
2022/12/06 01:09:00;;;;;;;3.63;3.03;;;3.10;99.90;;;;;;5080047;28;20194;-91
2022/12/06 01:11:34;;;;;;;3.65;2.90;;;3.10;99.90;;;;;;5079874;28;20191;-91
2022/12/06 01:14:06;;;;;;;3.03;2.65;;;3.10;99.90;;;;;;5079988;28;20209;-91
2022/12/06 01:16:37;;;;;;;3.75;2.20;;;3.10;99.90;;;;;;5079912;28;20224;-90
2022/12/06 01:19:26;;;;;;;4.65;3.40;;;3.10;99.90;;;;;;5079763;28;20189;-91
2022/12/06 01:22:06;;;;;;;3.03;2.75;;;3.00;99.90;;;;;;5079862;28;20244;-92
2022/12/06 01:24:53;;;;;;;5.45;2.95;;;3.00;99.90;;;;;;5079729;28;20214;-90
2022/12/06 01:27:27;;;;;;;4.18;2.88;;;3.00;99.90;;;;;;5079715;28;20188;-91
2022/12/06 01:29:59;;;;;;;2.85;2.53;;;3.10;99.90;;;;;;5079669;28;20189;-91
2022/12/06 01:32:29;;;;;;;3.70;2.75;;;3.10;99.90;;;;;;5079454;28;20201;-91
2022/12/06 01:34:59;;;;;;;2.90;2.58;;;3.20;99.90;;;;;;5079609;28;20209;-90
2022/12/06 01:37:31;;;;;;;3.30;3.00;;;3.10;99.90;;;;;;5079434;28;20181;-91
2022/12/06 01:40:08;;;;;;;4.95;3.42;;;3.10;99.90;;;;;;5079653;28;20194;-91
2022/12/06 01:42:39;;;;;;;5.30;2.80;;;3.00;99.90;;;;;;5079156;28;20213;-91
2022/12/06 01:45:28;;;;;;;3.35;2.95;;;3.00;99.90;;;;;;5079129;28;20214;-91
2022/12/06 01:48:05;;;;;;;3.10;2.75;;;3.00;99.90;;;;;;5079390;28;20208;-91
2022/12/06 01:50:57;;;;;;;3.55;3.10;;;3.00;99.90;;;;;;5078894;28;20253;-91
2022/12/06 01:53:35;;;;;;;2.78;2.40;;;3.00;99.90;;;;;;5078863;28;20209;-91
2022/12/06 01:56:22;;;;;;;3.50;2.88;;;3.00;99.90;;;;;;5079196;28;20269;-91
2022/12/06 01:59:05;;;;;;;2.85;2.50;;;3.00;99.90;;;;;;5079077;28;20181;-92
2022/12/06 02:01:44;;;;;;;2.72;2.50;;;2.90;99.90;;;;;;5075678;28;20232;-91
2022/12/06 02:04:29;;;;;;;4.47;3.10;;;3.00;99.90;;;;;;5078973;28;20202;-91
2022/12/06 02:07:07;;;;;;;3.65;3.20;;;3.00;99.90;;;;;;5079047;28;20186;-91
2022/12/06 02:09:35;;;;;;;3.47;2.90;;;3.00;99.90;;;;;;5079088;28;20174;-91
2022/12/06 02:12:10;;;;;;;3.35;2.92;;;3.00;99.90;;;;;;5078668;28;20202;-91
2022/12/06 02:14:37;;;;;;;3.67;3.03;;;3.10;99.90;;;;;;5078844;28;20209;-91
2022/12/06 02:17:33;;;;;;;3.35;2.90;;;3.10;99.90;;;;;;5078565;28;20216;-89
2022/12/06 02:20:19;;;;;;;3.33;3.03;;;3.10;99.90;;;;;;5078771;28;20182;-92
2022/12/06 02:23:07;;;;;;;3.38;2.70;;;3.10;99.90;;;;;;5078463;28;20207;-91
2022/12/06 02:26:15;;;;;;;4.05;3.10;;;3.10;99.90;;;;;;5078516;28;20193;-91
2022/12/06 02:29:25;;;;;;;3.67;2.67;;;3.10;99.90;;;;;;5078733;28;20182;-92
2022/12/06 02:31:58;;;;;;;5.10;3.35;;;3.20;99.90;;;;;;5078214;28;20186;-90
2022/12/06 02:34:32;;;;;;;3.33;2.80;;;3.20;99.90;;;;;;5078333;28;20279;-91
2022/12/06 02:37:03;;;;;;;3.65;3.05;;;3.20;99.90;;;;;;5078545;28;20201;-90
2022/12/06 02:39:38;;;;;;;3.70;3.38;;;3.30;99.90;;;;;;5078468;28;20182;-91
2022/12/06 02:42:09;;;;;;;3.42;3.13;;;3.30;99.90;;;;;;5078138;28;20197;-91
2022/12/06 02:44:39;;;;;;;5.60;3.05;;;3.30;99.90;;;;;;5078274;28;20197;-90
2022/12/06 02:47:12;;;;;;;3.17;2.88;;;3.30;99.90;;;;;;5078191;28;20211;-91
2022/12/06 02:49:48;;;;;;;2.78;2.50;;;3.30;99.90;;;;;;5077982;28;20206;-91
2022/12/06 02:52:17;;;;;;;3.38;2.95;;;3.30;99.90;;;;;;5077820;28;20185;-92
2022/12/06 02:54:49;;;;;;;3.40;2.67;;;3.30;99.90;;;;;;5078083;28;20217;-92
2022/12/06 02:57:27;;;;;;;3.38;2.85;;;3.30;99.90;;;;;;5077861;28;20216;-90
2022/12/06 03:00:02;;;;;;;3.88;2.80;;;3.30;99.90;;;;;;5077944;28;20181;-90
2022/12/06 03:02:34;;;;;;;5.45;3.05;;;3.30;99.90;;;;;;5077751;28;20205;-90
2022/12/06 03:05:12;;;;;;;5.85;3.22;;;3.30;99.90;;;;;;5077876;28;20189;-92
2022/12/06 03:07:50;;;;;;;3.78;3.03;;;3.30;99.90;;;;;;5069173;28;20313;-90
2022/12/06 03:10:35;;;;;;;3.80;3.42;;;3.30;99.90;;;;;;5057456;28;20190;-90
2022/12/06 03:13:10;;;;;;;6.15;3.40;;;3.30;99.90;;;;;;5057406;28;20178;-89
2022/12/06 03:15:51;;;;;;;4.18;3.65;;;3.30;99.90;;;;;;5057447;28;20237;-89
2022/12/06 03:18:34;;;;;;;2.83;2.35;;;3.30;99.90;;;;;;5057606;28;20178;-90
2022/12/06 03:21:06;;;;;;;4.03;3.10;;;3.30;99.90;;;;;;5057080;28;20186;-90
2022/12/06 03:23:37;;;;;;;4.40;3.50;;;3.30;99.90;;;;;;5057318;28;20223;-91
2022/12/06 03:26:06;;;;;;;4.60;2.90;;;3.30;99.90;;;;;;5069987;22;20197;-65
2022/12/06 03:28:37;;;;;;;3.35;2.95;;;3.30;99.90;;;;;;5050509;28;20200;-66
2022/12/06 03:31:09;;;;;;;3.75;2.90;;;3.30;99.90;;;;;;5049701;28;20296;-66
2022/12/06 03:33:42;;;;;;;4.07;3.60;;;3.30;99.90;;;;;;5051060;28;20201;-65
2022/12/06 03:36:12;;;;;;;10.98;3.83;;;3.30;99.90;;;;;;5050904;28;20205;-66
2022/12/06 03:38:49;;;;;;;4.60;3.40;;;3.30;99.90;;;;;;5050913;28;20225;-65
2022/12/06 03:41:19;;;;;;;3.22;2.92;;;3.30;99.90;;;;;;5049986;28;20300;-66
2022/12/06 03:43:46;;;;;;;3.13;2.80;;;3.20;99.90;;;;;;5050915;28;20276;-66
2022/12/06 03:46:15;;;;;;;4.30;2.80;;;3.20;99.90;;;;;;5050777;28;20297;-66
2022/12/06 03:48:46;;;;;;;3.88;3.15;;;3.20;99.90;;;;;;5050607;28;20264;-66
2022/12/06 03:51:18;;;;;;;4.47;3.55;;;3.20;99.90;;;;;;5049666;28;20631;-66
2022/12/06 03:53:48;;;;;;;2.88;2.38;;;3.20;99.90;;;;;;5050514;28;20201;-66
2022/12/06 03:56:15;;;;;;;3.42;3.05;;;3.20;99.90;;;;;;5050165;28;20236;-66
2022/12/06 03:58:42;;;;;;;3.47;2.70;;;3.20;99.90;;;;;;5050515;28;20296;-66
2022/12/06 04:01:10;;;;;;;4.28;3.33;;;3.30;99.90;;;;;;5049642;28;20290;-65
2022/12/06 04:03:37;;;;;;;3.30;2.65;;;3.30;99.90;;;;;;5050487;28;20690;-66
2022/12/06 04:06:06;;;;;;;3.65;2.60;;;3.20;99.90;;;;;;5050232;28;20275;-66
2022/12/06 04:08:33;;;;;;;3.50;3.03;;;3.30;99.90;;;;;;5050182;28;20551;-66
2022/12/06 04:11:00;;;;;;;3.40;3.10;;;3.30;99.90;;;;;;5049401;28;20197;-66
2022/12/06 04:13:27;;;;;;;3.97;3.08;;;3.30;99.90;;;;;;5050126;28;20243;-66
2022/12/06 04:15:56;;;;;;;3.20;2.90;;;3.20;99.90;;;;;;5050113;28;20225;-66
2022/12/06 04:18:23;;;;;;;3.58;2.40;;;3.20;99.90;;;;;;5050097;28;20248;-66
2022/12/06 04:23:44;;;;;;;6.13;3.45;;;3.30;99.90;;;;;;5051030;28;20275;-66
2022/12/06 04:26:13;;;;;;;3.72;3.13;;;3.30;99.90;;;;;;5054500;28;20688;-67
2022/12/06 04:39:40;;;;;;;4.82;3.60;;;3.20;99.90;;;;;;5052280;28;20228;-66
2022/12/06 04:44:51;;;;;;;3.80;2.90;;;3.20;99.90;;;;;;5052923;28;20303;-66
2022/12/06 04:47:18;;;;;;;3.95;3.05;;;3.10;99.90;;;;;;5053443;28;20229;-66
2022/12/06 04:49:44;;;;;;;3.35;2.72;;;3.10;99.90;;;;;;5053024;28;20209;-66
2022/12/06 04:52:11;;;;;;;3.85;2.88;;;3.20;99.90;;;;;;5051824;28;20201;-66
2022/12/06 04:54:40;;;;;;;3.30;3.00;;;3.20;99.90;;;;;;5051015;28;20289;-66
2022/12/06 04:57:09;;;;;;;4.20;3.30;;;3.20;99.90;;;;;;5051031;28;20312;-66
2022/12/06 04:59:38;;;;;;;4.15;3.75;;;3.10;99.90;;;;;;5051128;28;20745;-66
2022/12/06 05:02:05;;;;;;;3.38;3.10;;;3.10;99.90;;;;;;5049938;28;20979;-66
2022/12/06 05:04:32;;;;;;;3.20;2.65;;;3.20;99.90;;;;;;5051578;28;20201;-66
2022/12/06 05:06:59;;;;;;;3.97;3.15;;;3.10;99.90;;;;;;5053593;28;20222;-66
2022/12/06 05:09:26;;;;;;;6.35;3.30;;;3.00;99.90;;;;;;5053511;28;20312;-65
2022/12/06 05:11:54;;;;;;;3.70;2.80;;;3.00;99.90;;;;;;5054526;28;20190;-66
2022/12/06 05:14:21;;;;;;;3.75;3.00;;;3.00;99.90;;;;;;5053875;28;20251;-66
2022/12/06 05:16:48;;;;;;;3.58;2.83;;;3.00;99.90;;;;;;5053256;28;20231;-65
2022/12/06 05:19:15;;;;;;;2.60;2.40;;;3.00;99.90;;;;;;5053316;28;20212;-66
2022/12/06 05:21:42;;;;;;;7.10;3.13;;;3.00;99.90;;;;;;5052879;28;20596;-66
2022/12/06 05:24:09;;;;;;;3.35;3.05;;;3.00;99.90;;;;;;5124275;22;20651;-69
2022/12/06 05:26:36;;;;;;;3.30;2.70;;;3.00;99.90;;;;;;5087236;28;20851;-69
2022/12/06 05:29:05;;;;;;;3.17;2.88;;;3.00;99.90;;;;;;5073005;28;21023;-67
2022/12/06 05:31:32;;;;;;;3.33;2.90;;;3.10;99.90;;;;;;5072415;28;20201;-66
2022/12/06 05:33:59;;;;;;;2.50;2.30;;;3.10;99.90;;;;;;5072806;28;20204;-66
2022/12/06 05:36:27;;;;;;;3.20;2.78;;;3.10;99.90;;;;;;5072439;28;20232;-67
2022/12/06 05:38:54;;;;;;;5.22;2.88;;;3.10;99.90;;;;;;5072695;28;20572;-67
2022/12/06 05:41:22;;;;;;;4.15;3.10;;;3.10;99.90;;;;;;5072497;28;20213;-68
2022/12/06 05:43:49;;;;;;;5.03;3.50;;;3.10;99.90;;;;;;5073061;28;20231;-68
2022/12/06 05:46:18;;;;;;;3.08;2.78;;;3.10;99.90;;;;;;5073044;28;20201;-68
2022/12/06 05:48:45;;;;;;;4.78;3.10;;;3.10;99.90;;;;;;5072536;28;20205;-67
2022/12/06 05:51:12;;;;;;;4.43;2.92;;;3.10;99.90;;;;;;5072713;28;20262;-68
2022/12/06 05:53:39;;;;;;;5.43;3.25;;;3.10;99.90;;;;;;5073188;28;20202;-68
2022/12/06 05:56:07;;;;;;;5.10;3.10;;;3.10;99.90;;;;;;5072680;28;20201;-68
2022/12/06 05:58:34;;;;;;;3.28;2.80;;;3.10;99.90;;;;;;5072605;28;20211;-68
2022/12/06 06:01:01;;;;;;;3.47;2.80;;;3.10;99.90;;;;;;5071856;28;20205;-68
2022/12/06 06:03:29;;;;;;;3.30;2.45;;;3.10;99.90;;;;;;5072137;28;20228;-68
2022/12/06 06:05:58;;;;;;;6.53;3.10;;;3.10;99.90;;;;;;5072351;28;20201;-67
2022/12/06 06:08:25;;;;;;;2.90;2.60;;;3.10;99.90;;;;;;5072722;28;20201;-67
2022/12/06 06:10:52;;;;;;;3.17;2.83;;;3.10;99.90;;;;;;5071682;28;20201;-67
2022/12/06 06:13:18;;;;;;;3.72;2.97;;;3.10;99.90;;;;;;5072599;28;20201;-67
2022/12/06 06:15:45;;;;;;;4.47;3.55;;;3.10;99.90;;;;;;5072312;28;20296;-67
2022/12/06 06:18:12;;;;;;;3.97;3.00;;;3.20;99.90;;;;;;5071958;28;20224;-67
2022/12/06 06:20:40;;;;;;;4.68;3.38;;;3.20;99.90;;;;;;5071592;28;20212;-68
2022/12/06 06:23:07;;;;;;;5.30;3.60;;;3.20;99.90;;;;;;5072220;28;20315;-69
2022/12/06 06:25:34;;;;;;;3.47;2.72;;;3.20;99.90;;;;;;5072457;28;20205;-67
2022/12/06 06:28:00;;;;;;;4.25;3.13;;;3.20;99.90;;;;;;5071872;28;20742;-67
2022/12/06 06:30:27;;;;;;;3.60;2.30;;;3.30;99.90;;;;;;5071604;28;20209;-67
2022/12/06 06:32:54;;;;;;;3.60;3.30;;;3.30;99.90;;;;;;5071836;28;20223;-67
2022/12/06 06:35:21;;;;;;;2.97;2.67;;;3.30;99.90;;;;;;5071762;28;20208;-67
2022/12/06 06:37:49;;;;;;;3.10;2.53;;;3.30;99.90;;;;;;5071386;28;20243;-67
2022/12/06 06:40:16;;;;;;;3.17;2.60;;;3.30;99.90;;;;;;5071169;28;20221;-67
2022/12/06 06:42:43;;;;;;;4.18;2.85;;;3.30;99.90;;;;;;5071180;28;20198;-67
2022/12/06 06:45:11;;;;;;;3.97;3.15;;;3.30;99.90;;;;;;5071442;28;20201;-67
2022/12/06 06:47:37;;;;;;;3.42;2.75;;;3.20;99.90;;;;;;5070823;28;20602;-68
2022/12/06 06:50:05;;;;;;;4.97;2.88;;;3.20;99.90;;;;;;5071249;28;20201;-68
2022/12/06 06:52:32;;;;;;;5.75;3.53;;;3.20;99.90;;;;;;5071089;28;20197;-67
2022/12/06 06:55:00;;;;;;;3.47;3.17;;;3.10;99.90;;;;;;5071493;28;20201;-69
2022/12/06 06:57:27;;;;;;;3.25;2.63;;;3.10;99.90;;;;;;5071418;28;20583;-68
2022/12/06 06:59:55;;;;;;;3.65;2.67;;;3.20;99.90;;;;;;5071442;28;20204;-69
2022/12/06 07:02:22;;;;;;;3.35;2.67;;;3.10;99.90;;;;;;5070863;28;20292;-68
2022/12/06 07:04:49;;;;;;;3.63;2.80;;;3.20;99.90;;;;;;5072281;28;20236;-69
2022/12/06 07:07:16;;;;;;;3.42;2.53;;;3.20;99.90;;;;;;5072351;28;20221;-68
2022/12/06 07:09:43;;;;;;;5.07;3.00;;;3.20;99.90;;;;;;5071470;28;20579;-67
2022/12/06 07:12:11;;;;;;;2.65;2.22;;;3.20;99.90;;;;;;5070527;28;20205;-67
2022/12/06 07:14:38;;;;;;;3.25;2.95;;;3.20;99.90;;;;;;5062655;28;20201;-67
2022/12/06 07:17:04;;;;;;;2.60;2.40;;;3.30;99.90;;;;;;5059772;28;20263;-67
2022/12/06 07:19:31;;;;;;;4.35;3.47;;;3.20;99.90;;;;;;5069752;28;20201;-67
2022/12/06 07:21:58;;;;;;;5.40;3.33;;;3.20;99.90;;;;;;5069375;28;20481;-68
2022/12/06 07:24:24;;;;;;;4.10;2.88;;;3.10;99.90;;;;;;5070073;28;20221;-67
2022/12/06 07:26:51;;;;;;;3.50;3.15;;;3.10;99.90;;;;;;5069885;28;20375;-66
2022/12/06 07:29:19;;;;;;;5.07;3.40;;;3.10;99.90;;;;;;5062001;28;20340;-66
2022/12/06 07:31:46;;;;;;;3.15;2.85;;;3.10;99.90;;;;;;5069900;28;20205;-67
2022/12/06 07:34:13;;;;;;;5.32;3.58;;;3.10;99.90;;;;;;5070001;28;20574;-67
2022/12/06 07:36:39;;;;;;;3.83;2.67;;;3.10;99.90;;;;;;5070201;28;20221;-68
2022/12/06 07:39:06;;;;;;;4.00;3.42;;;3.10;99.90;;;;;;5069394;28;20201;-68
2022/12/06 07:46:46;;;;;;;4.95;3.40;;;3.20;99.90;;;;;;5034132;28;20236;-67
2022/12/06 07:49:14;;;;;;;4.50;3.63;;;3.30;99.90;;;;;;5031901;28;20199;-67
2022/12/06 07:51:41;;;;;;;3.75;3.08;;;3.30;99.90;;;;;;5030336;28;20209;-69
2022/12/06 07:54:08;;;;;;;4.22;3.30;;;3.30;99.90;;;;;;5030973;28;20206;-68
2022/12/06 07:56:35;;;;;;;6.32;3.53;;;3.30;99.90;;;;;;5030607;28;20245;-68
2022/12/06 07:59:02;;;;;;;4.03;2.83;;;3.30;99.90;;;;;;5030178;28;20210;-70
2022/12/06 08:01:29;;;;;;;5.25;3.30;;;3.30;99.90;;;;;;5030742;28;20229;-69
2022/12/06 08:03:59;;;;;;;5.28;3.17;;;3.30;99.90;;;;;;5030914;28;20601;-71
2022/12/06 08:06:26;;;;;;;4.32;3.15;;;3.30;99.90;;;;;;5031378;28;20229;-68
2022/12/06 08:08:52;;;;;;;3.90;3.10;;;3.40;99.90;;;;;;5031427;28;20209;-68
2022/12/06 08:11:19;;;;;;;5.65;3.13;;;3.40;99.90;;;;;;5030459;28;20230;-67
2022/12/06 08:13:46;;;;;;;3.47;2.70;;;3.40;99.90;;;;;;5031264;28;20204;-67
2022/12/06 08:16:13;;;;;;;5.68;3.45;;;3.40;99.90;;;;;;5030432;28;20206;-67
2022/12/06 08:18:40;;;;;;;3.47;3.17;;;3.40;99.90;;;;;;5030488;28;20209;-69
2022/12/06 08:21:09;;;;;;;4.25;3.28;;;3.40;99.90;;;;;;5029958;28;20582;-69
2022/12/06 08:23:36;;;;;;;5.20;3.85;;;3.50;99.90;;;;;;5030688;28;20226;-67
2022/12/06 08:26:06;;;;;;;4.22;3.45;;;3.50;99.90;;;;;;5030864;28;20206;-69
2022/12/06 08:28:34;;;;;;;5.50;3.50;;;3.50;99.90;;;;;;5031242;28;20203;-68
2022/12/06 08:31:05;;;;;;;4.15;2.80;;;3.50;99.90;;;;;;5030257;28;20206;-69
2022/12/06 08:33:32;;;;;;;3.75;2.85;;;3.60;99.90;;;;;;5030010;28;20697;-69
2022/12/06 08:35:59;;;;;;;3.97;3.05;;;3.50;99.90;;;;;;5030058;28;20206;-69
2022/12/06 08:38:28;;;;;;;8.32;3.92;;;3.50;99.90;;;;;;5030492;28;20207;-69
2022/12/06 08:40:55;;;;;;;4.28;3.40;;;3.50;99.90;;;;;;5030866;28;20210;-68
2022/12/06 08:43:21;;;;;;;3.97;3.58;;;3.50;99.90;;;;;;5032236;28;20206;-69
2022/12/06 08:45:50;;;;;;;3.83;3.42;;;3.50;99.90;;;;;;5031452;28;20237;-68
2022/12/06 08:48:17;;;;;;;4.07;2.95;;;3.60;99.90;;;;;;5030368;28;20284;-69
2022/12/06 08:50:44;;;;;;;4.30;3.38;;;3.60;99.90;;;;;;5029776;28;20214;-68
2022/12/06 08:53:11;;;;;;;3.67;3.35;;;3.70;99.90;;;;;;5030019;28;20202;-69
2022/12/06 08:55:40;;;;;;;4.35;3.33;;;3.70;99.90;;;;;;5030406;28;20229;-68
2022/12/06 08:58:07;;;;;;;5.53;3.78;;;3.70;99.90;;;;;;5030393;28;20713;-68
2022/12/06 09:00:33;;;;;;;5.00;3.80;;;3.80;99.90;;;;;;5029903;28;20681;-69
2022/12/06 09:03:00;;;;;;;4.30;3.30;;;3.90;99.90;;;;;;5030365;28;20697;-68
2022/12/06 09:05:27;;;;;;;4.38;3.22;;;3.90;99.90;;;;;;5030684;28;20215;-68
2022/12/06 09:07:54;;;;;;;4.93;3.33;;;4.00;99.90;;;;;;5030038;28;20729;-69
2022/12/06 09:10:20;;;;;;;3.97;3.53;;;4.00;99.90;;;;;;5031833;28;20549;-68
2022/12/06 09:12:49;;;;;;;5.13;3.20;;;4.00;99.90;;;;;;5033885;28;20210;-69
2022/12/06 09:15:16;;;;;;;7.50;4.55;;;4.10;99.90;;;;;;5033469;28;20195;-69
2022/12/06 09:17:43;;;;;;;5.25;3.45;;;4.20;99.90;;;;;;5033917;28;20230;-69
2022/12/06 09:20:16;;;;;;;4.57;3.45;;;4.20;99.90;;;;;;5033693;28;20233;-68
2022/12/06 09:22:43;;;;;;;4.13;3.50;;;4.20;99.90;;;;;;5033744;28;20670;-68
2022/12/06 09:25:10;;;;;;;4.60;3.40;;;4.30;99.90;;;;;;5033774;28;20712;-68
2022/12/06 09:27:37;;;;;;;5.78;3.30;;;4.30;99.90;;;;;;5033868;28;20317;-68
2022/12/06 09:30:07;;;;;;;4.65;3.67;;;4.40;99.90;;;;;;5033276;28;20225;-68
2022/12/06 09:32:34;;;;;;;2.75;2.53;;;4.40;99.90;;;;;;5032710;28;20206;-68
2022/12/06 09:35:01;;;;;;;4.10;3.05;;;4.40;99.90;;;;;;5033278;28;20209;-68
2022/12/06 09:37:28;;;;;;;3.85;3.45;;;4.50;99.90;;;;;;5034857;28;20235;-68
2022/12/06 09:39:58;;;;;;;3.90;3.25;;;4.50;99.90;;;;;;5033999;28;20229;-68
2022/12/06 09:42:51;;;;;;;5.18;4.55;;;4.50;99.90;;;;;;5033631;28;20225;-69
2022/12/06 09:45:39;;;;;;;4.90;3.20;;;4.60;99.90;;;;;;5033548;28;20226;-70
2022/12/06 09:48:26;;;;;;;5.47;3.90;;;4.70;99.90;;;;;;5033605;28;20223;-68
2022/12/06 09:51:01;;;;;;;3.47;2.85;;;4.70;99.90;;;;;;5033326;28;20208;-68
2022/12/06 09:53:42;;;;;;;5.15;3.65;;;4.80;99.90;;;;;;5031366;28;20205;-68
2022/12/06 09:56:19;;;;;;;3.83;3.15;;;4.80;99.90;;;;;;5031075;28;20415;-69
2022/12/06 09:59:00;;;;;;;3.55;3.25;;;4.80;99.90;;;;;;5032331;28;20209;-69
2022/12/06 10:01:40;;;;;;;4.82;3.53;;;4.80;99.90;;;;;;5032086;28;20228;-68
2022/12/06 10:04:39;;;;;;;4.00;3.60;;;4.70;99.90;;;;;;5032612;28;20222;-69
2022/12/06 10:07:13;;;;;;;3.85;3.45;;;4.70;99.90;;;;;;5022269;28;20310;-69
2022/12/06 10:09:53;;;;;;;4.45;3.90;;;4.70;99.90;;;;;;5031995;28;20715;-70
2022/12/06 10:12:33;;;;;;;6.13;4.28;;;4.80;99.90;;;;;;5031537;28;20199;-69
2022/12/06 10:15:13;;;;;;;6.30;4.20;;;4.70;99.90;;;;;;5031669;28;20207;-69
2022/12/06 10:17:57;;;;;;;6.75;4.80;;;4.70;99.90;;;;;;5031645;28;20262;-68
2022/12/06 10:20:34;;;;;;;6.32;4.20;;;4.80;99.90;;;;;;5031486;28;20626;-68
2022/12/06 10:23:17;;;;;;;4.57;3.97;;;4.80;99.90;;;;;;5031192;28;20209;-68
2022/12/06 10:25:55;;;;;;;5.68;4.55;;;4.80;99.90;;;;;;5031668;28;20300;-68
2022/12/06 10:28:30;;;;;;;5.85;4.55;;;4.80;99.90;;;;;;5032019;28;20229;-69
2022/12/06 10:31:03;;;;;;;7.43;5.05;;;4.70;99.90;;;;;;5031303;28;20198;-68
2022/12/06 10:33:41;;;;;;;8.23;4.72;;;4.70;99.90;;;;;;5032358;28;20202;-68
2022/12/06 10:36:12;;;;;;;9.55;5.85;;;4.60;99.90;;;;;;5032262;28;20210;-68
2022/12/06 10:38:44;;;;;;;9.30;6.13;;;4.70;99.90;;;;;;5031441;28;20305;-68
2022/12/06 10:41:16;;;;;;;10.30;6.40;;;4.70;99.90;;;;;;5031374;28;20206;-69
2022/12/06 10:43:50;;;;;;;8.32;5.65;;;4.70;99.90;;;;;;5032052;28;20206;-67
2022/12/06 10:49:19;;;;;;;8.38;6.00;;;4.80;99.90;;;;;;5030772;28;20590;-67
2022/12/06 10:51:53;;;;;;;12.27;6.75;;;4.80;99.90;;;;;;5030934;28;20202;-67
2022/12/06 10:54:29;;;;;;;13.77;6.90;;;4.80;99.90;;;;;;5031023;28;20206;-67
2022/12/06 10:57:02;;;;;;;10.48;5.95;;;4.80;99.90;;;;;;5030856;28;20607;-68
2022/12/06 10:59:34;;;;;;;7.03;6.05;;;4.80;99.90;;;;;;5031270;28;20210;-68
2022/12/06 11:02:14;;;;;;;10.30;6.93;;;4.80;99.90;;;;;;5029879;28;20199;-67
2022/12/06 11:04:46;;;;;;;8.93;6.28;;;4.90;99.90;;;;;;5030706;28;20728;-67
2022/12/06 11:07:17;;;;;;;7.63;5.30;;;4.90;99.90;;;;;;5030728;28;20340;-67
2022/12/06 11:09:47;;;;;;;6.90;5.25;;;4.90;99.90;;;;;;5030489;28;20206;-67
2022/12/06 11:12:29;;;;;;;7.85;6.05;;;4.90;99.90;;;;;;5029861;28;20210;-67
2022/12/06 11:15:04;;;;;;;7.20;5.45;;;4.90;99.90;;;;;;5029613;28;20198;-69
2022/12/06 11:17:34;;;;;;;8.90;5.78;;;4.90;99.90;;;;;;5030589;28;20222;-70
2022/12/06 11:20:10;;;;;;;10.32;5.97;;;4.90;99.90;;;;;;5030404;28;20210;-69
2022/12/06 11:22:50;;;;;;;7.05;5.55;;;4.90;99.90;;;;;;5029949;28;20210;-69
2022/12/06 11:25:25;;;;;;;5.65;5.05;;;4.90;99.90;;;;;;5030251;28;20230;-69
2022/12/06 11:27:55;;;;;;;9.90;5.90;;;4.80;99.90;;;;;;5030548;28;20284;-69
2022/12/06 11:30:22;;;;;;;6.50;5.65;;;4.80;99.90;;;;;;5030035;28;20206;-69
2022/12/06 11:32:51;;;;;;;7.30;5.43;;;4.80;99.90;;;;;;5030588;28;20613;-69
2022/12/06 11:35:22;;;;;;;11.48;7.53;;;4.80;99.90;;;;;;5030502;28;20253;-70
2022/12/06 11:37:54;;;;;;;6.55;4.97;;;4.80;99.90;;;;;;5029921;28;20242;-69
2022/12/06 11:40:25;;;;;;;7.47;6.15;;;4.80;99.90;;;;;;5029976;28;20211;-69
2022/12/06 11:42:52;;;;;;;7.93;5.63;;;4.80;99.90;;;;;;5030400;28;20198;-70
2022/12/06 11:45:25;;;;;;;7.80;6.15;;;4.80;99.90;;;;;;5029733;28;20226;-69
2022/12/06 11:47:53;;;;;;;7.40;5.82;;;4.80;99.90;;;;;;5030208;28;20219;-69
2022/12/06 11:50:22;;;;;;;8.75;5.20;;;4.80;99.90;;;;;;5029749;28;20206;-69
2022/12/06 11:52:52;;;;;;;8.98;5.80;;;4.80;99.90;;;;;;5030274;28;20206;-69
2022/12/06 11:55:22;;;;;;;7.10;5.68;;;4.80;99.90;;;;;;5030174;28;20646;-71
2022/12/06 11:57:53;;;;;;;8.98;6.35;;;4.80;99.90;;;;;;5030216;28;20241;-70
2022/12/06 12:00:21;;;;;;;9.77;6.50;;;4.80;99.90;;;;;;5029549;28;20684;-70
2022/12/06 12:02:50;;;;;;;6.60;5.35;;;4.90;99.90;;;;;;5029709;28;20209;-70
2022/12/06 12:05:24;;;;;;;6.88;5.25;;;4.80;99.90;;;;;;5029919;28;20230;-70
2022/12/06 12:07:55;;;;;;;8.98;6.57;;;4.80;99.90;;;;;;5029525;28;20662;-70
2022/12/06 12:10:32;;;;;;;8.90;5.93;;;4.80;99.90;;;;;;5029700;28;20203;-69
2022/12/06 12:16:12;;;;;;;9.43;5.88;;;4.70;99.90;;;;;;5029571;28;20194;-69
2022/12/06 12:18:43;;;;;;;7.32;5.72;;;4.70;99.90;;;;;;5030737;28;20283;-68
2022/12/06 12:21:11;;;;;;;8.15;5.90;;;4.70;99.90;;;;;;5029892;28;20218;-69
2022/12/06 12:23:43;;;;;;;10.73;7.00;;;4.70;99.90;;;;;;5030335;28;20206;-69
2022/12/06 12:26:13;;;;;;;8.13;5.47;;;4.70;99.90;;;;;;5113644;22;20536;-65
2022/12/06 12:28:41;;;;;;;8.15;5.85;;;4.60;99.90;;;;;;5049831;28;20274;-66
2022/12/06 12:31:11;;;;;;;8.73;6.68;;;4.60;99.90;;;;;;5046303;28;20212;-64
2022/12/06 12:33:38;;;;;;;10.52;6.45;;;4.60;99.90;;;;;;5034934;28;20202;-63
2022/12/06 12:36:21;;;;;;;7.10;5.53;;;4.60;99.90;;;;;;5040743;28;20285;-62
2022/12/06 12:38:55;;;;;;;7.45;5.50;;;4.60;99.90;;;;;;5049193;28;20201;-64
2022/12/06 12:41:32;;;;;;;8.80;5.68;;;4.40;99.90;;;;;;5048908;28;20328;-67
2022/12/06 12:44:02;;;;;;;8.07;6.10;;;4.50;99.90;;;;;;5049979;28;20214;-64
2022/12/06 12:46:30;;;;;;;6.57;5.10;;;4.50;99.90;;;;;;5053058;28;20226;-63
2022/12/06 12:49:22;;;;;;;10.48;6.35;;;4.40;99.90;;;;;;5052929;28;20247;-63
2022/12/06 12:51:50;;;;;;;7.78;4.85;;;4.40;99.90;;;;;;5052930;28;20205;-63
2022/12/06 12:54:23;;;;;;;6.38;4.30;;;4.40;99.90;;;;;;5052822;28;20230;-63
2022/12/06 12:56:51;;;;;;;5.82;4.25;;;4.30;99.90;;;;;;5053638;28;20222;-63
2022/12/06 12:59:20;;;;;;;6.25;4.00;;;4.30;99.90;;;;;;5052217;28;20217;-63
2022/12/06 13:01:51;;;;;;;5.28;4.25;;;4.30;99.90;;;;;;5052554;28;20228;-63
2022/12/06 13:04:40;;;;;;;6.97;3.50;;;4.30;99.90;;;;;;5052779;28;20301;-63
2022/12/06 13:07:15;;;;;;;3.85;3.08;;;4.20;99.90;;;;;;5052896;28;20272;-63
2022/12/06 13:09:49;;;;;;;3.97;3.42;;;4.20;99.90;;;;;;5052430;28;20688;-63
2022/12/06 13:12:20;;;;;;;5.75;4.45;;;4.20;99.90;;;;;;5052061;28;20198;-63
2022/12/06 13:14:52;;;;;;;7.45;4.10;;;4.20;99.90;;;;;;5053040;28;20205;-63
2022/12/06 13:17:22;;;;;;;3.97;2.95;;;4.30;99.90;;;;;;5052019;28;20606;-63
2022/12/06 13:19:49;;;;;;;3.05;2.35;;;4.20;99.90;;;;;;5051236;28;20198;-63
2022/12/06 13:22:22;;;;;;;4.38;2.95;;;4.20;99.90;;;;;;5052259;28;20197;-63
2022/12/06 13:25:03;;;;;;;3.90;3.05;;;4.10;99.90;;;;;;5053262;28;20218;-63
2022/12/06 13:27:34;;;;;;;3.67;3.08;;;4.10;99.90;;;;;;5052773;28;20256;-63
2022/12/06 13:30:05;;;;;;;3.60;2.55;;;4.10;99.90;;;;;;5053092;28;20696;-63
2022/12/06 13:32:38;;;;;;;3.33;2.88;;;4.10;99.90;;;;;;5053137;28;20209;-63
2022/12/06 13:35:12;;;;;;;2.40;2.20;;;4.00;99.90;;;;;;5052953;28;20204;-62
2022/12/06 13:37:45;;;;;;;2.65;2.45;;;4.10;99.90;;;;;;5052838;28;20232;-62
2022/12/06 13:40:37;;;;;;;3.30;2.17;;;4.10;99.90;;;;;;5052816;28;20210;-62
2022/12/06 13:43:06;;;;;;;4.63;2.97;;;4.10;99.90;;;;;;5052623;28;20228;-62
2022/12/06 13:45:44;;;;;;;3.53;2.80;;;4.10;99.90;;;;;;5052894;28;20697;-62
2022/12/06 13:48:37;;;;;;;4.78;2.75;;;4.10;99.90;;;;;;5052383;28;20225;-62
2022/12/06 13:51:08;;;;;;;4.95;2.63;;;4.10;99.90;;;;;;5052007;28;20425;-62
2022/12/06 13:54:15;;;;;;;4.45;2.90;;;4.10;99.90;;;;;;5052959;28;20209;-62
2022/12/06 13:56:42;;;;;;;2.95;2.65;;;4.10;99.90;;;;;;5052027;28;20225;-62